sensor_id;sensor_type;location;lat;lon;timestamp;P1;durP1;ratioP1;P2;durP2;ratioP2
14203;SDS011;7185;51.854;6.622;2023-04-06T00:02:20;17.08;;;8.95;;
14203;SDS011;7185;51.854;6.622;2023-04-06T00:04:51;17.42;;;9.57;;
14203;SDS011;7185;51.854;6.622;2023-04-06T00:07:23;15.45;;;8.93;;
14203;SDS011;7185;51.854;6.622;2023-04-06T00:09:55;18.77;;;9.82;;
14203;SDS011;7185;51.854;6.622;2023-04-06T00:12:26;17.10;;;9.43;;
14203;SDS011;7185;51.854;6.622;2023-04-06T00:15:00;18.55;;;9.40;;
14203;SDS011;7185;51.854;6.622;2023-04-06T00:17:31;15.00;;;8.98;;
14203;SDS011;7185;51.854;6.622;2023-04-06T00:20:03;15.63;;;8.77;;
14203;SDS011;7185;51.854;6.622;2023-04-06T00:22:36;15.38;;;8.82;;
14203;SDS011;7185;51.854;6.622;2023-04-06T00:25:08;13.73;;;9.00;;
14203;SDS011;7185;51.854;6.622;2023-04-06T00:27:41;14.73;;;8.45;;
14203;SDS011;7185;51.854;6.622;2023-04-06T00:30:14;17.20;;;8.70;;
14203;SDS011;7185;51.854;6.622;2023-04-06T00:32:45;15.23;;;8.85;;
14203;SDS011;7185;51.854;6.622;2023-04-06T00:35:17;16.48;;;9.02;;
14203;SDS011;7185;51.854;6.622;2023-04-06T00:37:49;13.20;;;8.20;;
14203;SDS011;7185;51.854;6.622;2023-04-06T00:40:20;19.58;;;9.63;;
14203;SDS011;7185;51.854;6.622;2023-04-06T00:42:52;15.88;;;8.40;;
14203;SDS011;7185;51.854;6.622;2023-04-06T00:45:25;16.02;;;8.80;;
14203;SDS011;7185;51.854;6.622;2023-04-06T00:47:57;15.70;;;8.50;;
14203;SDS011;7185;51.854;6.622;2023-04-06T00:50:29;19.17;;;8.77;;
14203;SDS011;7185;51.854;6.622;2023-04-06T00:53:00;18.55;;;9.48;;
14203;SDS011;7185;51.854;6.622;2023-04-06T00:55:32;16.33;;;9.20;;
14203;SDS011;7185;51.854;6.622;2023-04-06T00:58:05;19.80;;;9.63;;
14203;SDS011;7185;51.854;6.622;2023-04-06T01:00:39;15.20;;;9.55;;
14203;SDS011;7185;51.854;6.622;2023-04-06T01:03:10;15.80;;;9.70;;
14203;SDS011;7185;51.854;6.622;2023-04-06T01:05:42;16.70;;;8.80;;
14203;SDS011;7185;51.854;6.622;2023-04-06T01:08:14;17.55;;;10.13;;
14203;SDS011;7185;51.854;6.622;2023-04-06T01:10:45;18.05;;;9.23;;
14203;SDS011;7185;51.854;6.622;2023-04-06T01:13:17;18.08;;;9.60;;
14203;SDS011;7185;51.854;6.622;2023-04-06T01:15:50;16.20;;;9.20;;
14203;SDS011;7185;51.854;6.622;2023-04-06T01:18:25;17.15;;;9.02;;
14203;SDS011;7185;51.854;6.622;2023-04-06T01:20:57;17.77;;;9.45;;
14203;SDS011;7185;51.854;6.622;2023-04-06T01:23:31;15.85;;;9.43;;
14203;SDS011;7185;51.854;6.622;2023-04-06T01:26:02;14.45;;;8.73;;
14203;SDS011;7185;51.854;6.622;2023-04-06T01:28:34;17.45;;;9.48;;
14203;SDS011;7185;51.854;6.622;2023-04-06T01:31:07;18.00;;;9.85;;
14203;SDS011;7185;51.854;6.622;2023-04-06T01:33:39;18.13;;;9.98;;
14203;SDS011;7185;51.854;6.622;2023-04-06T01:36:11;17.70;;;9.80;;
14203;SDS011;7185;51.854;6.622;2023-04-06T01:38:44;20.63;;;10.32;;
14203;SDS011;7185;51.854;6.622;2023-04-06T01:41:16;17.27;;;9.60;;
14203;SDS011;7185;51.854;6.622;2023-04-06T01:43:48;17.55;;;10.30;;
14203;SDS011;7185;51.854;6.622;2023-04-06T01:46:20;19.20;;;9.98;;
14203;SDS011;7185;51.854;6.622;2023-04-06T01:48:51;18.55;;;10.95;;
14203;SDS011;7185;51.854;6.622;2023-04-06T01:51:23;18.58;;;10.63;;
14203;SDS011;7185;51.854;6.622;2023-04-06T01:53:57;19.05;;;10.80;;
14203;SDS011;7185;51.854;6.622;2023-04-06T01:56:28;18.17;;;10.30;;
14203;SDS011;7185;51.854;6.622;2023-04-06T01:59:00;17.55;;;10.35;;
14203;SDS011;7185;51.854;6.622;2023-04-06T02:01:32;16.77;;;9.85;;
14203;SDS011;7185;51.854;6.622;2023-04-06T02:04:03;17.60;;;9.80;;
14203;SDS011;7185;51.854;6.622;2023-04-06T02:06:35;19.95;;;10.32;;
14203;SDS011;7185;51.854;6.622;2023-04-06T02:09:08;17.20;;;10.18;;
14203;SDS011;7185;51.854;6.622;2023-04-06T02:11:40;21.73;;;10.88;;
14203;SDS011;7185;51.854;6.622;2023-04-06T02:14:11;19.17;;;10.35;;
14203;SDS011;7185;51.854;6.622;2023-04-06T02:16:45;20.27;;;10.23;;
14203;SDS011;7185;51.854;6.622;2023-04-06T02:19:16;18.98;;;10.02;;
14203;SDS011;7185;51.854;6.622;2023-04-06T02:21:48;17.52;;;9.85;;
14203;SDS011;7185;51.854;6.622;2023-04-06T02:24:21;18.67;;;10.02;;
14203;SDS011;7185;51.854;6.622;2023-04-06T02:26:53;17.73;;;10.38;;
14203;SDS011;7185;51.854;6.622;2023-04-06T02:29:24;21.98;;;10.82;;
14203;SDS011;7185;51.854;6.622;2023-04-06T02:31:56;19.38;;;10.93;;
14203;SDS011;7185;51.854;6.622;2023-04-06T02:34:28;17.38;;;10.52;;
14203;SDS011;7185;51.854;6.622;2023-04-06T02:37:00;20.23;;;10.70;;
14203;SDS011;7185;51.854;6.622;2023-04-06T02:39:33;20.60;;;10.90;;
14203;SDS011;7185;51.854;6.622;2023-04-06T02:42:05;19.95;;;11.35;;
14203;SDS011;7185;51.854;6.622;2023-04-06T02:44:36;20.55;;;11.65;;
14203;SDS011;7185;51.854;6.622;2023-04-06T02:47:08;19.02;;;11.00;;
14203;SDS011;7185;51.854;6.622;2023-04-06T02:49:40;18.85;;;10.20;;
14203;SDS011;7185;51.854;6.622;2023-04-06T02:52:11;19.92;;;10.80;;
14203;SDS011;7185;51.854;6.622;2023-04-06T02:54:44;18.02;;;10.50;;
14203;SDS011;7185;51.854;6.622;2023-04-06T02:57:16;17.88;;;10.30;;
14203;SDS011;7185;51.854;6.622;2023-04-06T02:59:48;21.35;;;11.35;;
14203;SDS011;7185;51.854;6.622;2023-04-06T03:02:19;18.83;;;10.52;;
14203;SDS011;7185;51.854;6.622;2023-04-06T03:04:51;20.73;;;11.48;;
14203;SDS011;7185;51.854;6.622;2023-04-06T03:07:23;22.90;;;11.95;;
14203;SDS011;7185;51.854;6.622;2023-04-06T03:09:56;24.80;;;13.00;;
14203;SDS011;7185;51.854;6.622;2023-04-06T03:12:27;20.05;;;12.30;;
14203;SDS011;7185;51.854;6.622;2023-04-06T03:14:59;22.02;;;13.05;;
14203;SDS011;7185;51.854;6.622;2023-04-06T03:17:31;21.58;;;12.77;;
14203;SDS011;7185;51.854;6.622;2023-04-06T03:20:02;23.02;;;13.02;;
14203;SDS011;7185;51.854;6.622;2023-04-06T03:22:35;22.65;;;12.90;;
14203;SDS011;7185;51.854;6.622;2023-04-06T03:25:08;22.85;;;12.25;;
14203;SDS011;7185;51.854;6.622;2023-04-06T03:27:40;22.65;;;11.95;;
14203;SDS011;7185;51.854;6.622;2023-04-06T03:30:12;22.83;;;12.65;;
14203;SDS011;7185;51.854;6.622;2023-04-06T03:32:46;22.38;;;12.32;;
14203;SDS011;7185;51.854;6.622;2023-04-06T03:35:17;25.35;;;13.45;;
14203;SDS011;7185;51.854;6.622;2023-04-06T03:37:49;21.27;;;12.27;;
14203;SDS011;7185;51.854;6.622;2023-04-06T03:40:22;21.10;;;11.95;;
14203;SDS011;7185;51.854;6.622;2023-04-06T03:42:54;21.48;;;12.00;;
14203;SDS011;7185;51.854;6.622;2023-04-06T03:45:25;24.27;;;11.77;;
14203;SDS011;7185;51.854;6.622;2023-04-06T03:47:57;23.85;;;13.27;;
14203;SDS011;7185;51.854;6.622;2023-04-06T03:50:29;23.55;;;13.48;;
14203;SDS011;7185;51.854;6.622;2023-04-06T03:53:00;23.73;;;13.23;;
14203;SDS011;7185;51.854;6.622;2023-04-06T03:55:34;21.75;;;13.85;;
14203;SDS011;7185;51.854;6.622;2023-04-06T03:58:06;22.55;;;14.68;;
14203;SDS011;7185;51.854;6.622;2023-04-06T04:00:37;22.52;;;14.57;;
14203;SDS011;7185;51.854;6.622;2023-04-06T04:03:09;26.85;;;13.98;;
14203;SDS011;7185;51.854;6.622;2023-04-06T04:05:41;24.90;;;14.45;;
14203;SDS011;7185;51.854;6.622;2023-04-06T04:08:13;24.00;;;13.75;;
14203;SDS011;7185;51.854;6.622;2023-04-06T04:10:46;23.38;;;13.95;;
14203;SDS011;7185;51.854;6.622;2023-04-06T04:13:18;26.02;;;13.30;;
14203;SDS011;7185;51.854;6.622;2023-04-06T04:15:50;23.23;;;13.63;;
14203;SDS011;7185;51.854;6.622;2023-04-06T04:18:23;25.63;;;13.10;;
14203;SDS011;7185;51.854;6.622;2023-04-06T04:20:55;26.58;;;12.95;;
14203;SDS011;7185;51.854;6.622;2023-04-06T04:23:27;25.33;;;13.40;;
14203;SDS011;7185;51.854;6.622;2023-04-06T04:26:00;22.70;;;12.05;;
14203;SDS011;7185;51.854;6.622;2023-04-06T04:28:31;19.88;;;11.70;;
14203;SDS011;7185;51.854;6.622;2023-04-06T04:31:03;21.85;;;11.88;;
14203;SDS011;7185;51.854;6.622;2023-04-06T04:33:35;22.02;;;11.63;;
14203;SDS011;7185;51.854;6.622;2023-04-06T04:36:06;20.10;;;11.90;;
14203;SDS011;7185;51.854;6.622;2023-04-06T04:38:40;22.55;;;13.85;;
14203;SDS011;7185;51.854;6.622;2023-04-06T04:41:13;25.92;;;13.38;;
14203;SDS011;7185;51.854;6.622;2023-04-06T04:43:44;22.42;;;13.02;;
14203;SDS011;7185;51.854;6.622;2023-04-06T04:46:16;20.63;;;12.25;;
14203;SDS011;7185;51.854;6.622;2023-04-06T04:48:48;29.42;;;13.73;;
14203;SDS011;7185;51.854;6.622;2023-04-06T04:51:19;23.83;;;12.65;;
14203;SDS011;7185;51.854;6.622;2023-04-06T04:53:51;19.75;;;11.82;;
14203;SDS011;7185;51.854;6.622;2023-04-06T04:56:24;27.35;;;14.20;;
14203;SDS011;7185;51.854;6.622;2023-04-06T04:58:57;25.85;;;15.50;;
14203;SDS011;7185;51.854;6.622;2023-04-06T05:01:29;26.13;;;15.55;;
14203;SDS011;7185;51.854;6.622;2023-04-06T05:04:00;24.52;;;15.27;;
14203;SDS011;7185;51.854;6.622;2023-04-06T05:06:32;27.30;;;15.20;;
14203;SDS011;7185;51.854;6.622;2023-04-06T05:09:04;27.23;;;14.90;;
14203;SDS011;7185;51.854;6.622;2023-04-06T05:11:37;26.25;;;15.48;;
14203;SDS011;7185;51.854;6.622;2023-04-06T05:14:09;23.15;;;14.48;;
14203;SDS011;7185;51.854;6.622;2023-04-06T05:16:41;27.10;;;16.15;;
14203;SDS011;7185;51.854;6.622;2023-04-06T05:19:12;31.88;;;17.70;;
14203;SDS011;7185;51.854;6.622;2023-04-06T05:21:44;32.15;;;16.08;;
14203;SDS011;7185;51.854;6.622;2023-04-06T05:24:15;29.50;;;16.60;;
14203;SDS011;7185;51.854;6.622;2023-04-06T05:26:49;26.77;;;15.60;;
14203;SDS011;7185;51.854;6.622;2023-04-06T05:29:20;25.08;;;14.93;;
14203;SDS011;7185;51.854;6.622;2023-04-06T05:31:52;27.52;;;16.50;;
14203;SDS011;7185;51.854;6.622;2023-04-06T05:34:24;30.30;;;16.30;;
14203;SDS011;7185;51.854;6.622;2023-04-06T05:36:56;26.00;;;15.60;;
14203;SDS011;7185;51.854;6.622;2023-04-06T05:39:27;28.35;;;15.63;;
14203;SDS011;7185;51.854;6.622;2023-04-06T05:42:03;25.45;;;14.38;;
14203;SDS011;7185;51.854;6.622;2023-04-06T05:44:36;26.83;;;13.93;;
14203;SDS011;7185;51.854;6.622;2023-04-06T05:47:08;25.33;;;13.30;;
14203;SDS011;7185;51.854;6.622;2023-04-06T05:49:41;25.58;;;13.25;;
14203;SDS011;7185;51.854;6.622;2023-04-06T05:52:13;26.33;;;13.65;;
14203;SDS011;7185;51.854;6.622;2023-04-06T05:54:44;27.38;;;13.63;;
14203;SDS011;7185;51.854;6.622;2023-04-06T05:57:17;28.88;;;14.50;;
14203;SDS011;7185;51.854;6.622;2023-04-06T05:59:49;27.02;;;13.68;;
14203;SDS011;7185;51.854;6.622;2023-04-06T06:02:21;24.65;;;13.50;;
14203;SDS011;7185;51.854;6.622;2023-04-06T06:04:53;25.77;;;13.43;;
14203;SDS011;7185;51.854;6.622;2023-04-06T06:07:25;28.40;;;14.02;;
14203;SDS011;7185;51.854;6.622;2023-04-06T06:09:57;27.42;;;13.90;;
14203;SDS011;7185;51.854;6.622;2023-04-06T06:12:30;23.13;;;14.27;;
14203;SDS011;7185;51.854;6.622;2023-04-06T06:15:02;26.13;;;13.60;;
14203;SDS011;7185;51.854;6.622;2023-04-06T06:17:34;23.65;;;13.15;;
14203;SDS011;7185;51.854;6.622;2023-04-06T06:20:06;30.73;;;13.88;;
14203;SDS011;7185;51.854;6.622;2023-04-06T06:22:39;26.33;;;13.02;;
14203;SDS011;7185;51.854;6.622;2023-04-06T06:25:11;22.10;;;12.80;;
14203;SDS011;7185;51.854;6.622;2023-04-06T06:27:44;25.45;;;14.85;;
14203;SDS011;7185;51.854;6.622;2023-04-06T06:30:15;27.67;;;14.45;;
14203;SDS011;7185;51.854;6.622;2023-04-06T06:32:47;26.90;;;14.65;;
14203;SDS011;7185;51.854;6.622;2023-04-06T06:35:19;23.10;;;13.40;;
14203;SDS011;7185;51.854;6.622;2023-04-06T06:37:51;28.02;;;15.70;;
14203;SDS011;7185;51.854;6.622;2023-04-06T06:40:23;24.70;;;14.05;;
14203;SDS011;7185;51.854;6.622;2023-04-06T06:42:57;25.90;;;13.90;;
14203;SDS011;7185;51.854;6.622;2023-04-06T06:45:29;26.48;;;12.88;;
14203;SDS011;7185;51.854;6.622;2023-04-06T06:48:00;23.42;;;12.25;;
14203;SDS011;7185;51.854;6.622;2023-04-06T06:50:32;22.67;;;12.93;;
14203;SDS011;7185;51.854;6.622;2023-04-06T06:53:04;24.60;;;13.45;;
14203;SDS011;7185;51.854;6.622;2023-04-06T06:55:35;25.40;;;13.90;;
14203;SDS011;7185;51.854;6.622;2023-04-06T06:58:08;23.38;;;12.25;;
14203;SDS011;7185;51.854;6.622;2023-04-06T07:00:40;29.05;;;13.13;;
14203;SDS011;7185;51.854;6.622;2023-04-06T07:03:12;23.73;;;13.07;;
14203;SDS011;7185;51.854;6.622;2023-04-06T07:05:48;24.67;;;13.13;;
14203;SDS011;7185;51.854;6.622;2023-04-06T07:08:23;25.60;;;12.38;;
14203;SDS011;7185;51.854;6.622;2023-04-06T07:10:55;26.50;;;13.23;;
14203;SDS011;7185;51.854;6.622;2023-04-06T07:13:28;22.27;;;11.65;;
14203;SDS011;7185;51.854;6.622;2023-04-06T07:16:00;22.80;;;13.13;;
14203;SDS011;7185;51.854;6.622;2023-04-06T07:18:32;26.60;;;12.90;;
14203;SDS011;7185;51.854;6.622;2023-04-06T07:21:04;26.23;;;12.52;;
14203;SDS011;7185;51.854;6.622;2023-04-06T07:23:35;29.60;;;13.02;;
14203;SDS011;7185;51.854;6.622;2023-04-06T07:26:07;23.20;;;11.43;;
14203;SDS011;7185;51.854;6.622;2023-04-06T07:28:40;25.40;;;13.10;;
14203;SDS011;7185;51.854;6.622;2023-04-06T07:31:12;22.30;;;11.88;;
14203;SDS011;7185;51.854;6.622;2023-04-06T07:33:43;25.85;;;12.52;;
14203;SDS011;7185;51.854;6.622;2023-04-06T07:36:15;25.38;;;12.63;;
14203;SDS011;7185;51.854;6.622;2023-04-06T07:38:48;20.42;;;12.02;;
14203;SDS011;7185;51.854;6.622;2023-04-06T07:41:20;27.42;;;13.20;;
14203;SDS011;7185;51.854;6.622;2023-04-06T07:43:53;26.42;;;12.38;;
14203;SDS011;7185;51.854;6.622;2023-04-06T07:46:25;23.80;;;12.25;;
14203;SDS011;7185;51.854;6.622;2023-04-06T07:48:56;22.77;;;12.38;;
14203;SDS011;7185;51.854;6.622;2023-04-06T07:51:29;26.40;;;12.70;;
14203;SDS011;7185;51.854;6.622;2023-04-06T07:54:01;20.15;;;12.00;;
14203;SDS011;7185;51.854;6.622;2023-04-06T07:56:32;25.15;;;12.48;;
14203;SDS011;7185;51.854;6.622;2023-04-06T07:59:05;29.50;;;12.32;;
14203;SDS011;7185;51.854;6.622;2023-04-06T08:01:37;22.17;;;12.93;;
14203;SDS011;7185;51.854;6.622;2023-04-06T08:04:22;23.35;;;11.48;;
14203;SDS011;7185;51.854;6.622;2023-04-06T08:06:53;27.55;;;12.95;;
14203;SDS011;7185;51.854;6.622;2023-04-06T08:09:25;27.13;;;12.68;;
14203;SDS011;7185;51.854;6.622;2023-04-06T08:11:57;26.42;;;13.57;;
14203;SDS011;7185;51.854;6.622;2023-04-06T08:14:29;21.48;;;12.38;;
14203;SDS011;7185;51.854;6.622;2023-04-06T08:17:00;25.27;;;12.32;;
14203;SDS011;7185;51.854;6.622;2023-04-06T08:19:33;27.13;;;13.95;;
14203;SDS011;7185;51.854;6.622;2023-04-06T08:22:05;27.15;;;13.70;;
14203;SDS011;7185;51.854;6.622;2023-04-06T08:24:37;24.13;;;12.85;;
14203;SDS011;7185;51.854;6.622;2023-04-06T08:27:08;31.55;;;13.23;;
14203;SDS011;7185;51.854;6.622;2023-04-06T08:29:40;24.85;;;12.68;;
14203;SDS011;7185;51.854;6.622;2023-04-06T08:32:12;21.48;;;12.23;;
14203;SDS011;7185;51.854;6.622;2023-04-06T08:34:45;26.27;;;12.57;;
14203;SDS011;7185;51.854;6.622;2023-04-06T08:37:17;24.88;;;13.38;;
14203;SDS011;7185;51.854;6.622;2023-04-06T08:39:49;23.20;;;12.82;;
14203;SDS011;7185;51.854;6.622;2023-04-06T08:42:21;25.80;;;13.35;;
14203;SDS011;7185;51.854;6.622;2023-04-06T08:44:56;21.80;;;13.15;;
14203;SDS011;7185;51.854;6.622;2023-04-06T08:47:28;21.42;;;12.73;;
14203;SDS011;7185;51.854;6.622;2023-04-06T08:50:02;21.52;;;12.70;;
14203;SDS011;7185;51.854;6.622;2023-04-06T08:52:36;23.95;;;12.93;;
14203;SDS011;7185;51.854;6.622;2023-04-06T08:55:09;26.25;;;13.35;;
14203;SDS011;7185;51.854;6.622;2023-04-06T08:57:41;27.00;;;12.13;;
14203;SDS011;7185;51.854;6.622;2023-04-06T09:00:14;25.80;;;13.02;;
14203;SDS011;7185;51.854;6.622;2023-04-06T09:02:46;24.25;;;13.20;;
14203;SDS011;7185;51.854;6.622;2023-04-06T09:05:22;26.92;;;13.95;;
14203;SDS011;7185;51.854;6.622;2023-04-06T09:07:56;23.95;;;13.82;;
14203;SDS011;7185;51.854;6.622;2023-04-06T09:10:28;25.67;;;13.93;;
14203;SDS011;7185;51.854;6.622;2023-04-06T09:13:04;25.67;;;14.05;;
14203;SDS011;7185;51.854;6.622;2023-04-06T09:15:37;26.67;;;14.32;;
14203;SDS011;7185;51.854;6.622;2023-04-06T09:18:09;23.25;;;13.75;;
14203;SDS011;7185;51.854;6.622;2023-04-06T09:20:42;24.63;;;13.65;;
14203;SDS011;7185;51.854;6.622;2023-04-06T09:23:17;25.92;;;15.70;;
14203;SDS011;7185;51.854;6.622;2023-04-06T09:25:49;28.45;;;16.00;;
14203;SDS011;7185;51.854;6.622;2023-04-06T09:28:21;34.65;;;19.75;;
14203;SDS011;7185;51.854;6.622;2023-04-06T09:30:52;32.42;;;15.00;;
14203;SDS011;7185;51.854;6.622;2023-04-06T09:33:24;24.08;;;14.25;;
14203;SDS011;7185;51.854;6.622;2023-04-06T09:35:57;26.95;;;14.93;;
14203;SDS011;7185;51.854;6.622;2023-04-06T09:38:29;27.95;;;16.08;;
14203;SDS011;7185;51.854;6.622;2023-04-06T09:41:01;26.25;;;14.70;;
14203;SDS011;7185;51.854;6.622;2023-04-06T09:43:32;25.95;;;15.15;;
14203;SDS011;7185;51.854;6.622;2023-04-06T09:46:04;24.02;;;14.10;;
14203;SDS011;7185;51.854;6.622;2023-04-06T09:48:36;27.65;;;14.82;;
14203;SDS011;7185;51.854;6.622;2023-04-06T09:51:10;26.55;;;15.85;;
14203;SDS011;7185;51.854;6.622;2023-04-06T09:53:45;26.75;;;15.65;;
14203;SDS011;7185;51.854;6.622;2023-04-06T09:56:24;24.70;;;14.18;;
14203;SDS011;7185;51.854;6.622;2023-04-06T09:59:02;31.90;;;14.55;;
14203;SDS011;7185;51.854;6.622;2023-04-06T10:01:39;29.13;;;14.27;;
14203;SDS011;7185;51.854;6.622;2023-04-06T10:04:14;29.83;;;15.23;;
14203;SDS011;7185;51.854;6.622;2023-04-06T10:06:58;30.83;;;14.65;;
14203;SDS011;7185;51.854;6.622;2023-04-06T10:09:31;27.50;;;14.63;;
14203;SDS011;7185;51.854;6.622;2023-04-06T10:12:06;27.27;;;15.27;;
14203;SDS011;7185;51.854;6.622;2023-04-06T10:14:38;29.00;;;14.45;;
14203;SDS011;7185;51.854;6.622;2023-04-06T10:17:11;30.70;;;16.10;;
14203;SDS011;7185;51.854;6.622;2023-04-06T10:19:44;31.90;;;16.02;;
14203;SDS011;7185;51.854;6.622;2023-04-06T10:22:22;28.27;;;13.18;;
14203;SDS011;7185;51.854;6.622;2023-04-06T10:24:58;23.60;;;13.95;;
14203;SDS011;7185;51.854;6.622;2023-04-06T10:27:30;33.22;;;15.20;;
14203;SDS011;7185;51.854;6.622;2023-04-06T10:30:04;26.77;;;14.48;;
14203;SDS011;7185;51.854;6.622;2023-04-06T10:32:37;26.05;;;14.18;;
14203;SDS011;7185;51.854;6.622;2023-04-06T10:35:10;23.48;;;14.07;;
14203;SDS011;7185;51.854;6.622;2023-04-06T10:37:49;28.45;;;15.00;;
14203;SDS011;7185;51.854;6.622;2023-04-06T10:40:22;26.02;;;14.32;;
14203;SDS011;7185;51.854;6.622;2023-04-06T10:43:06;24.65;;;14.07;;
14203;SDS011;7185;51.854;6.622;2023-04-06T10:45:38;25.75;;;14.48;;
14203;SDS011;7185;51.854;6.622;2023-04-06T10:48:13;28.25;;;15.90;;
14203;SDS011;7185;51.854;6.622;2023-04-06T10:50:46;27.80;;;14.18;;
14203;SDS011;7185;51.854;6.622;2023-04-06T10:53:24;26.70;;;15.07;;
14203;SDS011;7185;51.854;6.622;2023-04-06T10:55:56;29.45;;;14.55;;
14203;SDS011;7185;51.854;6.622;2023-04-06T10:58:29;29.15;;;15.30;;
14203;SDS011;7185;51.854;6.622;2023-04-06T11:01:01;25.17;;;15.55;;
14203;SDS011;7185;51.854;6.622;2023-04-06T11:03:41;24.73;;;15.48;;
14203;SDS011;7185;51.854;6.622;2023-04-06T11:06:20;27.65;;;15.52;;
14203;SDS011;7185;51.854;6.622;2023-04-06T11:08:54;28.35;;;14.95;;
14203;SDS011;7185;51.854;6.622;2023-04-06T11:11:27;28.35;;;15.73;;
14203;SDS011;7185;51.854;6.622;2023-04-06T11:13:59;27.88;;;16.17;;
14203;SDS011;7185;51.854;6.622;2023-04-06T11:16:31;31.60;;;16.17;;
14203;SDS011;7185;51.854;6.622;2023-04-06T11:19:04;27.40;;;14.77;;
14203;SDS011;7185;51.854;6.622;2023-04-06T11:21:37;25.30;;;14.25;;
14203;SDS011;7185;51.854;6.622;2023-04-06T11:24:13;27.50;;;15.52;;
14203;SDS011;7185;51.854;6.622;2023-04-06T11:26:46;26.45;;;14.55;;
14203;SDS011;7185;51.854;6.622;2023-04-06T11:29:21;24.35;;;14.20;;
14203;SDS011;7185;51.854;6.622;2023-04-06T11:31:57;23.38;;;13.55;;
14203;SDS011;7185;51.854;6.622;2023-04-06T11:34:30;28.90;;;15.02;;
14203;SDS011;7185;51.854;6.622;2023-04-06T11:37:07;29.27;;;14.10;;
14203;SDS011;7185;51.854;6.622;2023-04-06T11:39:42;24.15;;;13.88;;
14203;SDS011;7185;51.854;6.622;2023-04-06T11:42:21;25.58;;;14.43;;
14203;SDS011;7185;51.854;6.622;2023-04-06T11:44:54;27.35;;;14.85;;
14203;SDS011;7185;51.854;6.622;2023-04-06T11:47:29;26.75;;;14.45;;
14203;SDS011;7185;51.854;6.622;2023-04-06T11:50:06;27.48;;;15.57;;
14203;SDS011;7185;51.854;6.622;2023-04-06T11:52:39;29.97;;;15.70;;
14203;SDS011;7185;51.854;6.622;2023-04-06T11:55:14;24.80;;;13.82;;
14203;SDS011;7185;51.854;6.622;2023-04-06T11:57:47;28.23;;;14.27;;
14203;SDS011;7185;51.854;6.622;2023-04-06T12:00:20;26.05;;;14.65;;
14203;SDS011;7185;51.854;6.622;2023-04-06T12:02:52;22.25;;;12.70;;
14203;SDS011;7185;51.854;6.622;2023-04-06T12:05:24;21.67;;;12.65;;
14203;SDS011;7185;51.854;6.622;2023-04-06T12:07:55;21.67;;;11.15;;
14203;SDS011;7185;51.854;6.622;2023-04-06T12:10:29;25.98;;;12.13;;
14203;SDS011;7185;51.854;6.622;2023-04-06T12:13:00;20.45;;;11.88;;
14203;SDS011;7185;51.854;6.622;2023-04-06T12:15:32;27.75;;;11.55;;
14203;SDS011;7185;51.854;6.622;2023-04-06T12:18:04;24.70;;;11.57;;
14203;SDS011;7185;51.854;6.622;2023-04-06T12:20:35;24.35;;;13.05;;
14203;SDS011;7185;51.854;6.622;2023-04-06T12:23:07;23.38;;;12.25;;
14203;SDS011;7185;51.854;6.622;2023-04-06T12:25:40;24.35;;;12.07;;
14203;SDS011;7185;51.854;6.622;2023-04-06T12:28:13;24.13;;;12.55;;
14203;SDS011;7185;51.854;6.622;2023-04-06T12:30:45;24.02;;;12.85;;
14203;SDS011;7185;51.854;6.622;2023-04-06T12:33:17;24.08;;;12.77;;
14203;SDS011;7185;51.854;6.622;2023-04-06T12:35:48;23.13;;;12.38;;
14203;SDS011;7185;51.854;6.622;2023-04-06T12:38:20;19.75;;;12.13;;
14203;SDS011;7185;51.854;6.622;2023-04-06T12:40:53;22.17;;;13.10;;
14203;SDS011;7185;51.854;6.622;2023-04-06T12:43:25;26.45;;;14.00;;
14203;SDS011;7185;51.854;6.622;2023-04-06T12:45:57;24.95;;;13.02;;
14203;SDS011;7185;51.854;6.622;2023-04-06T12:48:29;21.60;;;12.63;;
14203;SDS011;7185;51.854;6.622;2023-04-06T12:51:01;24.58;;;13.23;;
14203;SDS011;7185;51.854;6.622;2023-04-06T12:53:34;25.88;;;12.90;;
14203;SDS011;7185;51.854;6.622;2023-04-06T12:56:18;18.45;;;10.98;;
14203;SDS011;7185;51.854;6.622;2023-04-06T12:58:51;21.88;;;10.95;;
14203;SDS011;7185;51.854;6.622;2023-04-06T13:01:24;17.15;;;10.63;;
14203;SDS011;7185;51.854;6.622;2023-04-06T13:03:57;17.75;;;10.45;;
14203;SDS011;7185;51.854;6.622;2023-04-06T13:06:29;18.88;;;10.68;;
14203;SDS011;7185;51.854;6.622;2023-04-06T13:09:01;20.48;;;11.85;;
14203;SDS011;7185;51.854;6.622;2023-04-06T13:11:35;20.05;;;11.98;;
14203;SDS011;7185;51.854;6.622;2023-04-06T13:14:07;19.80;;;11.52;;
14203;SDS011;7185;51.854;6.622;2023-04-06T13:16:39;20.77;;;11.05;;
14203;SDS011;7185;51.854;6.622;2023-04-06T13:19:10;21.30;;;12.02;;
14203;SDS011;7185;51.854;6.622;2023-04-06T13:21:42;19.88;;;11.55;;
14203;SDS011;7185;51.854;6.622;2023-04-06T13:24:14;20.58;;;11.52;;
14203;SDS011;7185;51.854;6.622;2023-04-06T13:26:47;19.45;;;12.30;;
14203;SDS011;7185;51.854;6.622;2023-04-06T13:29:18;19.67;;;10.85;;
14203;SDS011;7185;51.854;6.622;2023-04-06T13:31:50;21.77;;;10.23;;
14203;SDS011;7185;51.854;6.622;2023-04-06T13:34:22;17.92;;;10.90;;
14203;SDS011;7185;51.854;6.622;2023-04-06T13:36:54;17.27;;;9.70;;
14203;SDS011;7185;51.854;6.622;2023-04-06T13:39:25;16.60;;;9.60;;
14203;SDS011;7185;51.854;6.622;2023-04-06T13:41:58;15.43;;;9.07;;
14203;SDS011;7185;51.854;6.622;2023-04-06T13:44:31;16.70;;;10.40;;
14203;SDS011;7185;51.854;6.622;2023-04-06T13:47:03;18.73;;;9.90;;
14203;SDS011;7185;51.854;6.622;2023-04-06T13:49:35;17.15;;;10.23;;
14203;SDS011;7185;51.854;6.622;2023-04-06T13:52:07;15.93;;;9.07;;
14203;SDS011;7185;51.854;6.622;2023-04-06T13:54:40;16.63;;;7.97;;
14203;SDS011;7185;51.854;6.622;2023-04-06T13:57:12;14.48;;;7.15;;
14203;SDS011;7185;51.854;6.622;2023-04-06T13:59:44;12.23;;;6.28;;
14203;SDS011;7185;51.854;6.622;2023-04-06T14:02:16;9.05;;;5.57;;
14203;SDS011;7185;51.854;6.622;2023-04-06T14:04:48;11.80;;;6.50;;
14203;SDS011;7185;51.854;6.622;2023-04-06T14:07:20;11.20;;;5.93;;
14203;SDS011;7185;51.854;6.622;2023-04-06T14:09:52;15.32;;;7.38;;
14203;SDS011;7185;51.854;6.622;2023-04-06T14:12:25;12.40;;;7.22;;
14203;SDS011;7185;51.854;6.622;2023-04-06T14:14:57;11.88;;;6.95;;
14203;SDS011;7185;51.854;6.622;2023-04-06T14:17:28;10.73;;;6.75;;
14203;SDS011;7185;51.854;6.622;2023-04-06T14:20:00;10.88;;;6.88;;
14203;SDS011;7185;51.854;6.622;2023-04-06T14:22:32;13.10;;;7.43;;
14203;SDS011;7185;51.854;6.622;2023-04-06T14:25:04;13.95;;;7.00;;
14203;SDS011;7185;51.854;6.622;2023-04-06T14:27:38;17.83;;;7.80;;
14203;SDS011;7185;51.854;6.622;2023-04-06T14:30:10;14.48;;;7.90;;
14203;SDS011;7185;51.854;6.622;2023-04-06T14:32:42;14.65;;;7.25;;
14203;SDS011;7185;51.854;6.622;2023-04-06T14:35:14;12.88;;;8.05;;
14203;SDS011;7185;51.854;6.622;2023-04-06T14:37:46;15.07;;;7.85;;
14203;SDS011;7185;51.854;6.622;2023-04-06T14:40:18;13.73;;;7.50;;
14203;SDS011;7185;51.854;6.622;2023-04-06T14:42:51;15.38;;;8.63;;
14203;SDS011;7185;51.854;6.622;2023-04-06T14:45:23;17.50;;;8.10;;
14203;SDS011;7185;51.854;6.622;2023-04-06T14:47:54;14.88;;;8.32;;
14203;SDS011;7185;51.854;6.622;2023-04-06T14:50:26;13.95;;;8.00;;
14203;SDS011;7185;51.854;6.622;2023-04-06T14:52:58;14.23;;;8.23;;
14203;SDS011;7185;51.854;6.622;2023-04-06T14:55:29;14.60;;;7.95;;
14203;SDS011;7185;51.854;6.622;2023-04-06T15:00:36;16.50;;;9.75;;
14203;SDS011;7185;51.854;6.622;2023-04-06T15:03:08;15.85;;;8.93;;
14203;SDS011;7185;51.854;6.622;2023-04-06T15:05:39;17.52;;;9.18;;
14203;SDS011;7185;51.854;6.622;2023-04-06T15:08:11;16.25;;;8.77;;
14203;SDS011;7185;51.854;6.622;2023-04-06T15:10:45;14.77;;;9.60;;
14203;SDS011;7185;51.854;6.622;2023-04-06T15:13:16;20.17;;;10.20;;